sensor_id;sensor_type;location;lat;lon;timestamp;P1;durP1;ratioP1;P2;durP2;ratioP2
75993;SDS011;64680;53.800;9.988;2023-04-06T00:01:48;8.63;;;5.53;;
75993;SDS011;64680;53.800;9.988;2023-04-06T00:04:15;10.07;;;6.18;;
75993;SDS011;64680;53.800;9.988;2023-04-06T00:06:40;8.27;;;5.78;;
75993;SDS011;64680;53.800;9.988;2023-04-06T00:09:06;11.40;;;5.90;;
75993;SDS011;64680;53.800;9.988;2023-04-06T00:11:32;8.50;;;6.47;;
75993;SDS011;64680;53.800;9.988;2023-04-06T00:13:58;8.63;;;4.60;;
75993;SDS011;64680;53.800;9.988;2023-04-06T00:16:23;9.75;;;5.32;;
75993;SDS011;64680;53.800;9.988;2023-04-06T00:18:49;11.00;;;5.85;;
75993;SDS011;64680;53.800;9.988;2023-04-06T00:21:15;9.10;;;5.85;;
75993;SDS011;64680;53.800;9.988;2023-04-06T00:23:41;8.52;;;3.97;;
75993;SDS011;64680;53.800;9.988;2023-04-06T00:26:07;8.30;;;5.38;;
75993;SDS011;64680;53.800;9.988;2023-04-06T00:28:33;11.23;;;6.07;;
75993;SDS011;64680;53.800;9.988;2023-04-06T00:30:59;8.57;;;5.35;;
75993;SDS011;64680;53.800;9.988;2023-04-06T00:33:25;9.75;;;6.25;;
75993;SDS011;64680;53.800;9.988;2023-04-06T00:35:57;9.95;;;5.85;;
75993;SDS011;64680;53.800;9.988;2023-04-06T00:38:23;9.68;;;5.53;;
75993;SDS011;64680;53.800;9.988;2023-04-06T00:40:48;9.25;;;5.47;;
75993;SDS011;64680;53.800;9.988;2023-04-06T00:43:14;8.85;;;6.32;;
75993;SDS011;64680;53.800;9.988;2023-04-06T00:45:41;8.75;;;5.88;;
75993;SDS011;64680;53.800;9.988;2023-04-06T00:48:07;10.25;;;6.00;;
75993;SDS011;64680;53.800;9.988;2023-04-06T00:50:33;10.82;;;5.93;;
75993;SDS011;64680;53.800;9.988;2023-04-06T00:52:59;9.50;;;5.63;;
75993;SDS011;64680;53.800;9.988;2023-04-06T00:55:26;10.52;;;5.90;;
75993;SDS011;64680;53.800;9.988;2023-04-06T00:57:52;9.38;;;6.05;;
75993;SDS011;64680;53.800;9.988;2023-04-06T01:00:18;8.45;;;5.55;;
75993;SDS011;64680;53.800;9.988;2023-04-06T01:02:44;9.10;;;5.55;;
75993;SDS011;64680;53.800;9.988;2023-04-06T01:05:11;9.85;;;5.45;;
75993;SDS011;64680;53.800;9.988;2023-04-06T01:07:36;8.38;;;5.13;;
75993;SDS011;64680;53.800;9.988;2023-04-06T01:10:02;7.22;;;5.05;;
75993;SDS011;64680;53.800;9.988;2023-04-06T01:12:29;8.65;;;5.68;;
75993;SDS011;64680;53.800;9.988;2023-04-06T01:14:55;9.30;;;5.68;;
75993;SDS011;64680;53.800;9.988;2023-04-06T01:17:20;7.82;;;5.65;;
75993;SDS011;64680;53.800;9.988;2023-04-06T01:19:46;9.00;;;5.65;;
75993;SDS011;64680;53.800;9.988;2023-04-06T01:22:17;8.65;;;5.40;;
75993;SDS011;64680;53.800;9.988;2023-04-06T01:24:43;8.13;;;5.57;;
75993;SDS011;64680;53.800;9.988;2023-04-06T01:27:09;7.55;;;4.25;;
75993;SDS011;64680;53.800;9.988;2023-04-06T01:29:35;8.07;;;5.93;;
75993;SDS011;64680;53.800;9.988;2023-04-06T01:32:01;13.02;;;6.13;;
75993;SDS011;64680;53.800;9.988;2023-04-06T01:34:27;10.57;;;4.85;;
75993;SDS011;64680;53.800;9.988;2023-04-06T01:36:52;11.45;;;6.45;;
75993;SDS011;64680;53.800;9.988;2023-04-06T01:39:18;10.52;;;6.57;;
75993;SDS011;64680;53.800;9.988;2023-04-06T01:41:44;10.45;;;6.82;;
75993;SDS011;64680;53.800;9.988;2023-04-06T01:44:12;10.63;;;6.70;;
75993;SDS011;64680;53.800;9.988;2023-04-06T01:46:38;9.18;;;6.60;;
75993;SDS011;64680;53.800;9.988;2023-04-06T01:49:03;9.60;;;6.28;;
75993;SDS011;64680;53.800;9.988;2023-04-06T01:51:29;11.30;;;6.25;;
75993;SDS011;64680;53.800;9.988;2023-04-06T01:53:55;11.93;;;7.32;;
75993;SDS011;64680;53.800;9.988;2023-04-06T01:56:21;10.60;;;5.70;;
75993;SDS011;64680;53.800;9.988;2023-04-06T01:58:47;10.43;;;6.53;;
75993;SDS011;64680;53.800;9.988;2023-04-06T02:01:12;11.82;;;6.68;;
75993;SDS011;64680;53.800;9.988;2023-04-06T02:03:38;12.32;;;6.53;;
75993;SDS011;64680;53.800;9.988;2023-04-06T02:06:03;12.70;;;7.22;;
75993;SDS011;64680;53.800;9.988;2023-04-06T02:08:29;11.10;;;7.57;;
75993;SDS011;64680;53.800;9.988;2023-04-06T02:10:55;12.57;;;7.10;;
75993;SDS011;64680;53.800;9.988;2023-04-06T02:13:20;11.55;;;7.45;;
75993;SDS011;64680;53.800;9.988;2023-04-06T02:15:46;13.30;;;6.70;;
75993;SDS011;64680;53.800;9.988;2023-04-06T02:18:12;11.18;;;5.65;;
75993;SDS011;64680;53.800;9.988;2023-04-06T02:20:37;12.07;;;7.50;;
75993;SDS011;64680;53.800;9.988;2023-04-06T02:23:03;12.25;;;6.95;;
75993;SDS011;64680;53.800;9.988;2023-04-06T02:25:29;12.38;;;6.55;;
75993;SDS011;64680;53.800;9.988;2023-04-06T02:27:54;13.13;;;7.63;;
75993;SDS011;64680;53.800;9.988;2023-04-06T02:30:20;12.13;;;7.15;;
75993;SDS011;64680;53.800;9.988;2023-04-06T02:32:45;9.77;;;6.00;;
75993;SDS011;64680;53.800;9.988;2023-04-06T02:35:11;12.65;;;7.25;;
75993;SDS011;64680;53.800;9.988;2023-04-06T02:37:37;12.57;;;6.97;;
75993;SDS011;64680;53.800;9.988;2023-04-06T02:40:03;11.13;;;6.75;;
75993;SDS011;64680;53.800;9.988;2023-04-06T02:42:29;12.20;;;6.32;;
75993;SDS011;64680;53.800;9.988;2023-04-06T02:44:55;11.57;;;7.03;;
75993;SDS011;64680;53.800;9.988;2023-04-06T02:47:20;13.43;;;7.55;;
75993;SDS011;64680;53.800;9.988;2023-04-06T02:49:46;12.57;;;7.90;;
75993;SDS011;64680;53.800;9.988;2023-04-06T02:52:12;12.80;;;5.82;;
75993;SDS011;64680;53.800;9.988;2023-04-06T02:54:37;14.52;;;7.75;;
75993;SDS011;64680;53.800;9.988;2023-04-06T02:57:03;13.80;;;6.55;;
75993;SDS011;64680;53.800;9.988;2023-04-06T02:59:29;12.93;;;7.22;;
75993;SDS011;64680;53.800;9.988;2023-04-06T03:01:54;14.43;;;8.25;;
75993;SDS011;64680;53.800;9.988;2023-04-06T03:04:20;15.15;;;8.05;;
75993;SDS011;64680;53.800;9.988;2023-04-06T03:06:47;16.23;;;7.20;;
75993;SDS011;64680;53.800;9.988;2023-04-06T03:09:13;15.50;;;7.90;;
75993;SDS011;64680;53.800;9.988;2023-04-06T03:11:39;17.17;;;7.40;;
75993;SDS011;64680;53.800;9.988;2023-04-06T03:14:05;16.33;;;8.50;;
75993;SDS011;64680;53.800;9.988;2023-04-06T03:16:30;16.40;;;8.95;;
75993;SDS011;64680;53.800;9.988;2023-04-06T03:18:56;14.93;;;8.45;;
75993;SDS011;64680;53.800;9.988;2023-04-06T03:21:22;16.80;;;9.50;;
75993;SDS011;64680;53.800;9.988;2023-04-06T03:23:47;16.02;;;9.10;;
75993;SDS011;64680;53.800;9.988;2023-04-06T03:26:22;13.77;;;8.50;;
75993;SDS011;64680;53.800;9.988;2023-04-06T03:28:47;14.75;;;8.73;;
75993;SDS011;64680;53.800;9.988;2023-04-06T03:31:13;15.75;;;8.93;;
75993;SDS011;64680;53.800;9.988;2023-04-06T03:33:39;18.38;;;7.97;;
75993;SDS011;64680;53.800;9.988;2023-04-06T03:36:05;17.10;;;8.02;;
75993;SDS011;64680;53.800;9.988;2023-04-06T03:38:31;16.73;;;8.68;;
75993;SDS011;64680;53.800;9.988;2023-04-06T03:40:57;17.00;;;8.70;;
75993;SDS011;64680;53.800;9.988;2023-04-06T03:43:23;19.20;;;9.18;;
75993;SDS011;64680;53.800;9.988;2023-04-06T03:45:48;18.00;;;9.07;;
75993;SDS011;64680;53.800;9.988;2023-04-06T03:48:14;15.25;;;9.35;;
75993;SDS011;64680;53.800;9.988;2023-04-06T03:50:40;19.35;;;9.27;;
75993;SDS011;64680;53.800;9.988;2023-04-06T03:53:06;16.35;;;9.38;;
75993;SDS011;64680;53.800;9.988;2023-04-06T03:55:31;18.23;;;8.90;;
75993;SDS011;64680;53.800;9.988;2023-04-06T03:57:57;15.35;;;8.70;;
75993;SDS011;64680;53.800;9.988;2023-04-06T04:00:22;20.63;;;9.65;;
75993;SDS011;64680;53.800;9.988;2023-04-06T04:02:48;17.17;;;9.60;;
75993;SDS011;64680;53.800;9.988;2023-04-06T04:05:14;16.63;;;9.05;;
75993;SDS011;64680;53.800;9.988;2023-04-06T04:07:40;17.88;;;8.70;;
75993;SDS011;64680;53.800;9.988;2023-04-06T04:10:05;19.40;;;9.35;;
75993;SDS011;64680;53.800;9.988;2023-04-06T04:12:31;21.02;;;9.50;;
75993;SDS011;64680;53.800;9.988;2023-04-06T04:14:57;20.58;;;9.10;;
75993;SDS011;64680;53.800;9.988;2023-04-06T04:17:22;19.55;;;11.52;;
75993;SDS011;64680;53.800;9.988;2023-04-06T04:19:49;19.40;;;10.90;;
75993;SDS011;64680;53.800;9.988;2023-04-06T04:22:15;20.30;;;11.00;;
75993;SDS011;64680;53.800;9.988;2023-04-06T04:24:40;19.17;;;10.52;;
75993;SDS011;64680;53.800;9.988;2023-04-06T04:27:06;15.60;;;9.60;;
75993;SDS011;64680;53.800;9.988;2023-04-06T04:29:38;19.48;;;10.38;;
75993;SDS011;64680;53.800;9.988;2023-04-06T04:32:04;21.23;;;9.77;;
75993;SDS011;64680;53.800;9.988;2023-04-06T04:34:29;19.52;;;10.90;;
75993;SDS011;64680;53.800;9.988;2023-04-06T04:36:56;20.10;;;10.55;;
75993;SDS011;64680;53.800;9.988;2023-04-06T04:39:21;19.77;;;10.30;;
75993;SDS011;64680;53.800;9.988;2023-04-06T04:41:47;23.52;;;10.85;;
75993;SDS011;64680;53.800;9.988;2023-04-06T04:44:13;22.30;;;10.25;;
75993;SDS011;64680;53.800;9.988;2023-04-06T04:46:39;18.35;;;10.02;;
75993;SDS011;64680;53.800;9.988;2023-04-06T04:49:06;21.05;;;10.13;;
75993;SDS011;64680;53.800;9.988;2023-04-06T04:51:32;19.17;;;10.90;;
75993;SDS011;64680;53.800;9.988;2023-04-06T04:53:58;19.67;;;10.27;;
75993;SDS011;64680;53.800;9.988;2023-04-06T04:56:24;19.83;;;10.32;;
75993;SDS011;64680;53.800;9.988;2023-04-06T04:58:50;22.23;;;11.40;;
75993;SDS011;64680;53.800;9.988;2023-04-06T05:01:15;22.02;;;11.02;;
75993;SDS011;64680;53.800;9.988;2023-04-06T05:03:41;21.70;;;11.50;;
75993;SDS011;64680;53.800;9.988;2023-04-06T05:06:07;25.38;;;12.63;;
75993;SDS011;64680;53.800;9.988;2023-04-06T05:08:33;22.40;;;11.25;;
75993;SDS011;64680;53.800;9.988;2023-04-06T05:11:04;22.85;;;11.90;;
75993;SDS011;64680;53.800;9.988;2023-04-06T05:13:30;21.60;;;11.20;;
75993;SDS011;64680;53.800;9.988;2023-04-06T05:15:56;27.00;;;12.75;;
75993;SDS011;64680;53.800;9.988;2023-04-06T05:18:22;26.33;;;13.02;;
75993;SDS011;64680;53.800;9.988;2023-04-06T05:20:47;24.65;;;12.25;;
75993;SDS011;64680;53.800;9.988;2023-04-06T05:23:13;26.30;;;13.05;;
75993;SDS011;64680;53.800;9.988;2023-04-06T05:25:39;24.58;;;12.10;;
75993;SDS011;64680;53.800;9.988;2023-04-06T05:28:05;26.02;;;12.65;;
75993;SDS011;64680;53.800;9.988;2023-04-06T05:30:31;21.02;;;11.55;;
75993;SDS011;64680;53.800;9.988;2023-04-06T05:32:57;22.65;;;11.57;;
75993;SDS011;64680;53.800;9.988;2023-04-06T05:35:23;20.92;;;11.20;;
75993;SDS011;64680;53.800;9.988;2023-04-06T05:37:49;20.50;;;9.05;;
75993;SDS011;64680;53.800;9.988;2023-04-06T05:40:15;20.70;;;11.35;;
75993;SDS011;64680;53.800;9.988;2023-04-06T05:42:41;15.75;;;10.15;;
75993;SDS011;64680;53.800;9.988;2023-04-06T05:45:08;18.80;;;8.55;;
75993;SDS011;64680;53.800;9.988;2023-04-06T05:47:42;19.13;;;9.38;;
75993;SDS011;64680;53.800;9.988;2023-04-06T05:50:11;18.50;;;8.52;;
75993;SDS011;64680;53.800;9.988;2023-04-06T05:52:39;16.95;;;9.32;;
75993;SDS011;64680;53.800;9.988;2023-04-06T05:55:08;18.48;;;8.25;;
75993;SDS011;64680;53.800;9.988;2023-04-06T05:57:34;16.88;;;9.18;;
75993;SDS011;64680;53.800;9.988;2023-04-06T06:00:00;15.65;;;7.85;;
75993;SDS011;64680;53.800;9.988;2023-04-06T06:02:26;15.05;;;8.48;;
75993;SDS011;64680;53.800;9.988;2023-04-06T06:04:51;15.73;;;6.93;;
75993;SDS011;64680;53.800;9.988;2023-04-06T06:07:17;16.80;;;7.70;;
75993;SDS011;64680;53.800;9.988;2023-04-06T06:09:42;13.63;;;7.72;;
75993;SDS011;64680;53.800;9.988;2023-04-06T06:12:08;13.52;;;7.45;;
75993;SDS011;64680;53.800;9.988;2023-04-06T06:14:34;14.20;;;7.35;;
75993;SDS011;64680;53.800;9.988;2023-04-06T06:16:59;14.45;;;7.88;;
75993;SDS011;64680;53.800;9.988;2023-04-06T06:19:25;14.88;;;7.00;;
75993;SDS011;64680;53.800;9.988;2023-04-06T06:21:51;12.85;;;7.00;;
75993;SDS011;64680;53.800;9.988;2023-04-06T06:24:16;12.68;;;6.72;;
75993;SDS011;64680;53.800;9.988;2023-04-06T06:26:42;11.48;;;6.82;;
75993;SDS011;64680;53.800;9.988;2023-04-06T06:29:08;10.82;;;6.40;;
75993;SDS011;64680;53.800;9.988;2023-04-06T06:31:34;11.95;;;6.00;;
75993;SDS011;64680;53.800;9.988;2023-04-06T06:34:00;10.32;;;5.85;;
75993;SDS011;64680;53.800;9.988;2023-04-06T06:36:27;14.23;;;7.00;;
75993;SDS011;64680;53.800;9.988;2023-04-06T06:38:56;12.60;;;6.53;;
75993;SDS011;64680;53.800;9.988;2023-04-06T06:41:23;12.45;;;7.10;;
75993;SDS011;64680;53.800;9.988;2023-04-06T06:43:51;10.00;;;6.00;;
75993;SDS011;64680;53.800;9.988;2023-04-06T06:46:16;9.70;;;6.13;;
75993;SDS011;64680;53.800;9.988;2023-04-06T06:48:42;10.40;;;6.35;;
75993;SDS011;64680;53.800;9.988;2023-04-06T06:51:08;10.23;;;6.55;;
75993;SDS011;64680;53.800;9.988;2023-04-06T06:53:34;10.23;;;6.35;;
75993;SDS011;64680;53.800;9.988;2023-04-06T06:56:00;11.55;;;6.72;;
75993;SDS011;64680;53.800;9.988;2023-04-06T06:58:26;10.63;;;6.18;;
75993;SDS011;64680;53.800;9.988;2023-04-06T07:00:55;10.85;;;6.80;;
75993;SDS011;64680;53.800;9.988;2023-04-06T07:03:25;12.20;;;6.72;;
75993;SDS011;64680;53.800;9.988;2023-04-06T07:05:50;11.65;;;6.68;;
75993;SDS011;64680;53.800;9.988;2023-04-06T07:08:23;10.43;;;6.72;;
75993;SDS011;64680;53.800;9.988;2023-04-06T07:10:52;8.82;;;6.18;;
75993;SDS011;64680;53.800;9.988;2023-04-06T07:13:18;10.75;;;6.38;;
75993;SDS011;64680;53.800;9.988;2023-04-06T07:15:48;9.63;;;5.97;;
75993;SDS011;64680;53.800;9.988;2023-04-06T07:18:14;10.00;;;6.07;;
75993;SDS011;64680;53.800;9.988;2023-04-06T07:20:40;8.35;;;5.93;;
75993;SDS011;64680;53.800;9.988;2023-04-06T07:23:06;9.55;;;6.15;;
75993;SDS011;64680;53.800;9.988;2023-04-06T07:25:42;10.60;;;5.72;;
75993;SDS011;64680;53.800;9.988;2023-04-06T07:28:07;10.00;;;5.65;;
75993;SDS011;64680;53.800;9.988;2023-04-06T07:30:33;9.63;;;5.57;;
75993;SDS011;64680;53.800;9.988;2023-04-06T07:32:59;9.48;;;5.90;;
75993;SDS011;64680;53.800;9.988;2023-04-06T07:35:25;8.35;;;5.30;;
75993;SDS011;64680;53.800;9.988;2023-04-06T07:37:52;10.05;;;5.25;;
75993;SDS011;64680;53.800;9.988;2023-04-06T07:40:18;8.40;;;5.57;;
75993;SDS011;64680;53.800;9.988;2023-04-06T07:42:44;8.63;;;5.80;;
75993;SDS011;64680;53.800;9.988;2023-04-06T07:45:10;9.27;;;5.50;;
75993;SDS011;64680;53.800;9.988;2023-04-06T07:47:36;9.02;;;5.15;;
75993;SDS011;64680;53.800;9.988;2023-04-06T07:50:02;8.68;;;5.55;;
75993;SDS011;64680;53.800;9.988;2023-04-06T07:52:28;10.60;;;5.80;;
75993;SDS011;64680;53.800;9.988;2023-04-06T07:54:53;10.27;;;6.18;;
75993;SDS011;64680;53.800;9.988;2023-04-06T07:57:19;10.32;;;5.82;;
75993;SDS011;64680;53.800;9.988;2023-04-06T07:59:45;12.13;;;6.97;;
75993;SDS011;64680;53.800;9.988;2023-04-06T08:02:10;8.60;;;6.53;;
75993;SDS011;64680;53.800;9.988;2023-04-06T08:04:36;8.68;;;5.60;;
75993;SDS011;64680;53.800;9.988;2023-04-06T08:07:02;7.13;;;4.82;;
75993;SDS011;64680;53.800;9.988;2023-04-06T08:09:27;8.07;;;4.95;;
75993;SDS011;64680;53.800;9.988;2023-04-06T08:11:56;7.93;;;5.10;;
75993;SDS011;64680;53.800;9.988;2023-04-06T08:14:22;8.15;;;4.95;;
75993;SDS011;64680;53.800;9.988;2023-04-06T08:16:48;7.22;;;4.53;;
75993;SDS011;64680;53.800;9.988;2023-04-06T08:19:13;6.85;;;4.70;;
75993;SDS011;64680;53.800;9.988;2023-04-06T08:21:42;9.05;;;5.00;;
75993;SDS011;64680;53.800;9.988;2023-04-06T08:24:08;7.80;;;4.60;;
75993;SDS011;64680;53.800;9.988;2023-04-06T08:26:33;6.53;;;3.92;;
75993;SDS011;64680;53.800;9.988;2023-04-06T08:28:59;8.02;;;3.67;;
75993;SDS011;64680;53.800;9.988;2023-04-06T08:31:25;7.70;;;4.47;;
75993;SDS011;64680;53.800;9.988;2023-04-06T08:33:51;8.07;;;4.18;;
75993;SDS011;64680;53.800;9.988;2023-04-06T08:36:17;5.40;;;3.55;;
75993;SDS011;64680;53.800;9.988;2023-04-06T08:38:47;6.40;;;3.70;;
75993;SDS011;64680;53.800;9.988;2023-04-06T08:41:14;6.25;;;3.58;;
75993;SDS011;64680;53.800;9.988;2023-04-06T08:43:42;4.75;;;2.92;;
75993;SDS011;64680;53.800;9.988;2023-04-06T08:46:12;5.95;;;3.47;;
75993;SDS011;64680;53.800;9.988;2023-04-06T08:48:38;6.55;;;3.33;;
75993;SDS011;64680;53.800;9.988;2023-04-06T08:51:05;5.90;;;3.45;;
75993;SDS011;64680;53.800;9.988;2023-04-06T08:53:31;5.22;;;2.90;;
75993;SDS011;64680;53.800;9.988;2023-04-06T08:55:57;6.07;;;2.97;;
75993;SDS011;64680;53.800;9.988;2023-04-06T08:58:23;5.00;;;2.85;;
75993;SDS011;64680;53.800;9.988;2023-04-06T09:00:50;5.15;;;3.50;;
75993;SDS011;64680;53.800;9.988;2023-04-06T09:03:17;7.32;;;3.65;;
75993;SDS011;64680;53.800;9.988;2023-04-06T09:05:43;6.35;;;3.53;;
75993;SDS011;64680;53.800;9.988;2023-04-06T09:08:11;7.13;;;4.32;;
75993;SDS011;64680;53.800;9.988;2023-04-06T09:10:39;7.38;;;3.88;;
75993;SDS011;64680;53.800;9.988;2023-04-06T09:13:06;8.57;;;3.85;;
75993;SDS011;64680;53.800;9.988;2023-04-06T09:15:32;6.00;;;4.00;;
75993;SDS011;64680;53.800;9.988;2023-04-06T09:18:05;7.55;;;3.97;;
75993;SDS011;64680;53.800;9.988;2023-04-06T09:20:30;5.25;;;3.60;;
75993;SDS011;64680;53.800;9.988;2023-04-06T09:22:56;6.13;;;3.28;;
75993;SDS011;64680;53.800;9.988;2023-04-06T09:25:31;5.95;;;3.25;;
75993;SDS011;64680;53.800;9.988;2023-04-06T09:28:02;5.10;;;3.45;;
75993;SDS011;64680;53.800;9.988;2023-04-06T09:30:28;5.80;;;3.40;;
75993;SDS011;64680;53.800;9.988;2023-04-06T09:32:55;5.38;;;3.33;;
75993;SDS011;64680;53.800;9.988;2023-04-06T09:35:22;6.68;;;4.22;;
75993;SDS011;64680;53.800;9.988;2023-04-06T09:37:49;5.05;;;3.10;;
75993;SDS011;64680;53.800;9.988;2023-04-06T09:40:16;5.93;;;3.03;;
75993;SDS011;64680;53.800;9.988;2023-04-06T09:42:46;5.45;;;3.10;;
75993;SDS011;64680;53.800;9.988;2023-04-06T09:45:13;6.03;;;2.97;;
75993;SDS011;64680;53.800;9.988;2023-04-06T09:47:40;4.70;;;2.85;;
75993;SDS011;64680;53.800;9.988;2023-04-06T09:50:10;4.57;;;2.80;;
75993;SDS011;64680;53.800;9.988;2023-04-06T09:52:46;4.03;;;2.63;;
75993;SDS011;64680;53.800;9.988;2023-04-06T09:55:35;5.63;;;2.97;;
75993;SDS011;64680;53.800;9.988;2023-04-06T09:58:07;5.55;;;2.63;;
75993;SDS011;64680;53.800;9.988;2023-04-06T10:01:12;4.35;;;3.00;;
75993;SDS011;64680;53.800;9.988;2023-04-06T10:06:22;5.70;;;3.03;;
75993;SDS011;64680;53.800;9.988;2023-04-06T10:08:52;4.38;;;2.45;;
75993;SDS011;64680;53.800;9.988;2023-04-06T10:11:21;5.18;;;4.05;;
75993;SDS011;64680;53.800;9.988;2023-04-06T10:13:47;5.95;;;3.42;;
75993;SDS011;64680;53.800;9.988;2023-04-06T10:16:14;5.57;;;3.47;;
75993;SDS011;64680;53.800;9.988;2023-04-06T10:18:41;4.75;;;2.97;;
75993;SDS011;64680;53.800;9.988;2023-04-06T10:21:12;5.13;;;3.30;;
75993;SDS011;64680;53.800;9.988;2023-04-06T10:23:48;4.88;;;3.58;;
75993;SDS011;64680;53.800;9.988;2023-04-06T10:26:21;5.10;;;3.28;;
75993;SDS011;64680;53.800;9.988;2023-04-06T10:28:47;4.40;;;2.92;;
75993;SDS011;64680;53.800;9.988;2023-04-06T10:31:14;5.70;;;3.50;;
75993;SDS011;64680;53.800;9.988;2023-04-06T10:33:40;6.15;;;3.25;;
75993;SDS011;64680;53.800;9.988;2023-04-06T10:36:13;4.90;;;2.95;;
75993;SDS011;64680;53.800;9.988;2023-04-06T10:38:46;5.10;;;3.85;;
75993;SDS011;64680;53.800;9.988;2023-04-06T10:41:11;4.85;;;3.30;;
75993;SDS011;64680;53.800;9.988;2023-04-06T10:43:38;6.10;;;3.08;;
75993;SDS011;64680;53.800;9.988;2023-04-06T10:46:05;11.55;;;4.30;;
75993;SDS011;64680;53.800;9.988;2023-04-06T10:48:42;8.35;;;3.20;;
75993;SDS011;64680;53.800;9.988;2023-04-06T10:51:17;7.28;;;3.90;;
75993;SDS011;64680;53.800;9.988;2023-04-06T10:53:44;9.50;;;3.70;;
75993;SDS011;64680;53.800;9.988;2023-04-06T10:56:15;5.65;;;4.55;;
75993;SDS011;64680;53.800;9.988;2023-04-06T10:58:46;7.53;;;3.53;;
75993;SDS011;64680;53.800;9.988;2023-04-06T11:01:17;7.25;;;4.35;;
75993;SDS011;64680;53.800;9.988;2023-04-06T11:03:44;6.13;;;3.45;;
75993;SDS011;64680;53.800;9.988;2023-04-06T11:06:17;6.10;;;3.60;;
75993;SDS011;64680;53.800;9.988;2023-04-06T11:08:46;5.90;;;4.38;;
75993;SDS011;64680;53.800;9.988;2023-04-06T11:11:12;7.43;;;3.83;;
75993;SDS011;64680;53.800;9.988;2023-04-06T11:13:50;6.82;;;4.32;;
75993;SDS011;64680;53.800;9.988;2023-04-06T11:19:00;6.70;;;3.97;;
75993;SDS011;64680;53.800;9.988;2023-04-06T11:21:37;5.35;;;3.97;;
75993;SDS011;64680;53.800;9.988;2023-04-06T11:24:09;7.40;;;4.88;;
75993;SDS011;64680;53.800;9.988;2023-04-06T11:26:36;6.28;;;4.65;;
75993;SDS011;64680;53.800;9.988;2023-04-06T11:29:04;6.60;;;4.30;;
75993;SDS011;64680;53.800;9.988;2023-04-06T11:31:30;7.28;;;4.97;;
75993;SDS011;64680;53.800;9.988;2023-04-06T11:33:56;8.10;;;5.80;;
75993;SDS011;64680;53.800;9.988;2023-04-06T11:36:22;5.70;;;4.85;;
75993;SDS011;64680;53.800;9.988;2023-04-06T11:38:48;7.97;;;6.00;;
75993;SDS011;64680;53.800;9.988;2023-04-06T11:41:14;7.18;;;5.05;;
75993;SDS011;64680;53.800;9.988;2023-04-06T11:43:45;7.60;;;5.68;;
75993;SDS011;64680;53.800;9.988;2023-04-06T11:46:16;7.60;;;5.57;;
75993;SDS011;64680;53.800;9.988;2023-04-06T11:48:44;7.75;;;5.10;;
75993;SDS011;64680;53.800;9.988;2023-04-06T11:51:11;7.95;;;5.57;;
75993;SDS011;64680;53.800;9.988;2023-04-06T11:53:45;7.50;;;5.30;;
75993;SDS011;64680;53.800;9.988;2023-04-06T11:56:21;8.52;;;5.30;;
75993;SDS011;64680;53.800;9.988;2023-04-06T11:58:56;7.28;;;5.15;;
75993;SDS011;64680;53.800;9.988;2023-04-06T12:01:23;8.25;;;5.28;;
75993;SDS011;64680;53.800;9.988;2023-04-06T12:03:50;8.57;;;5.25;;
75993;SDS011;64680;53.800;9.988;2023-04-06T12:06:16;8.07;;;5.57;;
75993;SDS011;64680;53.800;9.988;2023-04-06T12:08:42;7.82;;;5.13;;
75993;SDS011;64680;53.800;9.988;2023-04-06T12:11:09;10.07;;;6.40;;
75993;SDS011;64680;53.800;9.988;2023-04-06T12:13:35;7.75;;;5.45;;
75993;SDS011;64680;53.800;9.988;2023-04-06T12:16:01;7.07;;;5.65;;
75993;SDS011;64680;53.800;9.988;2023-04-06T12:18:27;8.43;;;5.53;;
75993;SDS011;64680;53.800;9.988;2023-04-06T12:20:52;7.07;;;4.93;;
75993;SDS011;64680;53.800;9.988;2023-04-06T12:23:18;7.57;;;5.03;;
75993;SDS011;64680;53.800;9.988;2023-04-06T12:25:45;7.40;;;5.43;;
75993;SDS011;64680;53.800;9.988;2023-04-06T12:28:11;8.60;;;5.45;;
75993;SDS011;64680;53.800;9.988;2023-04-06T12:30:36;7.20;;;6.22;;
75993;SDS011;64680;53.800;9.988;2023-04-06T12:33:02;6.10;;;4.55;;
75993;SDS011;64680;53.800;9.988;2023-04-06T12:35:28;8.25;;;6.72;;
75993;SDS011;64680;53.800;9.988;2023-04-06T12:37:54;6.90;;;5.15;;
75993;SDS011;64680;53.800;9.988;2023-04-06T12:40:20;7.78;;;5.53;;
75993;SDS011;64680;53.800;9.988;2023-04-06T12:42:45;8.52;;;6.07;;
75993;SDS011;64680;53.800;9.988;2023-04-06T12:45:11;7.30;;;5.13;;
75993;SDS011;64680;53.800;9.988;2023-04-06T12:47:37;8.52;;;4.82;;
75993;SDS011;64680;53.800;9.988;2023-04-06T12:50:04;7.53;;;5.35;;
75993;SDS011;64680;53.800;9.988;2023-04-06T12:52:31;7.40;;;4.95;;
75993;SDS011;64680;53.800;9.988;2023-04-06T12:55:00;9.45;;;5.40;;
75993;SDS011;64680;53.800;9.988;2023-04-06T12:57:26;7.18;;;5.13;;
75993;SDS011;64680;53.800;9.988;2023-04-06T12:59:52;8.55;;;5.75;;
75993;SDS011;64680;53.800;9.988;2023-04-06T13:02:18;7.10;;;4.82;;
75993;SDS011;64680;53.800;9.988;2023-04-06T13:07:11;9.23;;;5.88;;
75993;SDS011;64680;53.800;9.988;2023-04-06T13:09:37;6.20;;;4.63;;
75993;SDS011;64680;53.800;9.988;2023-04-06T13:12:02;7.90;;;5.10;;
75993;SDS011;64680;53.800;9.988;2023-04-06T13:14:28;6.90;;;4.40;;
75993;SDS011;64680;53.800;9.988;2023-04-06T13:16:54;8.68;;;5.22;;
75993;SDS011;64680;53.800;9.988;2023-04-06T13:19:20;7.93;;;4.93;;
75993;SDS011;64680;53.800;9.988;2023-04-06T13:21:46;6.70;;;4.60;;
75993;SDS011;64680;53.800;9.988;2023-04-06T13:24:12;7.20;;;4.70;;
75993;SDS011;64680;53.800;9.988;2023-04-06T13:26:38;8.68;;;5.13;;
75993;SDS011;64680;53.800;9.988;2023-04-06T13:29:03;6.75;;;4.85;;
75993;SDS011;64680;53.800;9.988;2023-04-06T13:31:29;6.53;;;4.82;;
75993;SDS011;64680;53.800;9.988;2023-04-06T13:33:55;8.90;;;4.70;;
75993;SDS011;64680;53.800;9.988;2023-04-06T13:36:21;7.25;;;5.28;;
75993;SDS011;64680;53.800;9.988;2023-04-06T13:38:47;8.00;;;5.38;;
75993;SDS011;64680;53.800;9.988;2023-04-06T13:41:23;9.07;;;5.45;;
75993;SDS011;64680;53.800;9.988;2023-04-06T13:43:50;8.57;;;4.47;;
75993;SDS011;64680;53.800;9.988;2023-04-06T13:46:16;7.07;;;5.00;;
75993;SDS011;64680;53.800;9.988;2023-04-06T13:48:42;6.53;;;4.57;;
75993;SDS011;64680;53.800;9.988;2023-04-06T13:51:11;8.20;;;4.97;;
75993;SDS011;64680;53.800;9.988;2023-04-06T13:53:37;9.30;;;6.10;;
75993;SDS011;64680;53.800;9.988;2023-04-06T13:56:04;6.95;;;4.50;;
75993;SDS011;64680;53.800;9.988;2023-04-06T13:58:30;9.07;;;5.15;;
75993;SDS011;64680;53.800;9.988;2023-04-06T14:01:03;8.70;;;5.43;;
75993;SDS011;64680;53.800;9.988;2023-04-06T14:03:34;6.40;;;5.05;;
75993;SDS011;64680;53.800;9.988;2023-04-06T14:06:11;7.03;;;5.20;;
75993;SDS011;64680;53.800;9.988;2023-04-06T14:08:37;7.60;;;5.63;;
75993;SDS011;64680;53.800;9.988;2023-04-06T14:11:03;6.65;;;4.80;;
75993;SDS011;64680;53.800;9.988;2023-04-06T14:13:29;7.07;;;5.13;;
75993;SDS011;64680;53.800;9.988;2023-04-06T14:15:55;7.28;;;5.00;;
75993;SDS011;64680;53.800;9.988;2023-04-06T14:18:22;9.13;;;5.22;;
75993;SDS011;64680;53.800;9.988;2023-04-06T14:20:54;8.40;;;5.57;;
75993;SDS011;64680;53.800;9.988;2023-04-06T14:23:21;8.25;;;5.28;;
75993;SDS011;64680;53.800;9.988;2023-04-06T14:25:47;9.82;;;5.38;;
75993;SDS011;64680;53.800;9.988;2023-04-06T14:28:13;6.75;;;4.90;;
75993;SDS011;64680;53.800;9.988;2023-04-06T14:30:39;7.78;;;5.32;;
75993;SDS011;64680;53.800;9.988;2023-04-06T14:33:05;8.55;;;5.80;;
75993;SDS011;64680;53.800;9.988;2023-04-06T14:35:32;8.20;;;4.93;;
75993;SDS011;64680;53.800;9.988;2023-04-06T14:37:57;6.25;;;4.97;;
75993;SDS011;64680;53.800;9.988;2023-04-06T14:40:23;7.05;;;4.80;;
75993;SDS011;64680;53.800;9.988;2023-04-06T14:42:49;6.35;;;4.97;;
75993;SDS011;64680;53.800;9.988;2023-04-06T14:45:19;8.60;;;4.78;;
75993;SDS011;64680;53.800;9.988;2023-04-06T14:47:46;7.10;;;4.82;;